Time;durP1;ratioP1;P1;durP2;ratioP2;P2;SDS_P1;SDS_P2;PMS_P1;PMS_P2;Temp;Humidity;BMP_temperature;BMP_pressure;BME280_temperature;BME280_humidity;BME280_pressure;Samples;Min_cycle;Max_cycle;Signal;HPM_P1;HPM_P2
2023/12/01 16:32:28;;;;;;;;;21.00;15.75;;;;;19.12;34.29;100508.06;5753265;23;47171;-76
2023/12/01 16:34:53;;;;;;;;;17.00;16.00;;;;;19.14;34.32;100495.53;4973281;28;45384;-72
2023/12/01 16:37:19;;;;;;;;;16.75;15.00;;;;;19.01;34.50;100483.69;4976116;28;46274;-76
2023/12/01 16:39:44;;;;;;;;;16.00;14.00;;;;;19.07;34.74;100479.56;4974522;28;45373;-75
2023/12/01 16:42:10;;;;;;;;;17.75;14.00;;;;;19.18;34.63;100492.41;4976354;28;45341;-73
2023/12/01 16:44:36;;;;;;;;;14.00;13.50;;;;;19.13;34.78;100476.22;4973483;28;45443;-79
2023/12/01 16:47:01;;;;;;;;;14.50;13.00;;;;;19.35;34.82;100500.28;4956930;28;46099;-77
2023/12/01 16:49:26;;;;;;;;;14.25;13.00;;;;;19.37;34.88;100500.09;4955737;28;57486;-76
2023/12/01 16:51:51;;;;;;;;;13.50;13.50;;;;;19.21;34.98;100471.94;4957183;28;45385;-75
2023/12/01 16:54:17;;;;;;;;;14.00;13.25;;;;;19.45;35.07;100501.88;4957378;28;45365;-75
2023/12/01 16:56:42;;;;;;;;;16.00;11.00;;;;;19.46;35.25;100501.72;4957075;28;45381;-76
2023/12/01 16:59:07;;;;;;;;;15.00;10.00;;;;;19.37;35.13;100490.38;4957365;28;45290;-75
2023/12/01 17:01:33;;;;;;;;;10.25;10.25;;;;;19.13;35.31;100446.41;4956731;28;59828;-76
2023/12/01 17:03:58;;;;;;;;;10.25;9.25;;;;;19.53;35.60;100507.13;4956971;28;45483;-75
2023/12/01 17:06:23;;;;;;;;;12.75;11.25;;;;;19.56;35.36;100516.50;4957099;28;45974;-75
2023/12/01 17:08:49;;;;;;;;;11.00;11.00;;;;;19.55;35.66;100509.59;4957480;28;51182;-75
2023/12/01 17:11:14;;;;;;;;;15.75;13.25;;;;;19.46;35.77;100501.72;4957313;28;45422;-75
2023/12/01 17:13:39;;;;;;;;;12.00;12.00;;;;;19.60;35.59;100531.84;4957155;28;45278;-75
2023/12/01 17:16:05;;;;;;;;;10.25;10.25;;;;;19.62;35.63;100532.47;4956815;28;55258;-76
2023/12/01 17:18:30;;;;;;;;;14.25;11.50;;;;;19.45;35.58;100513.25;4956843;28;45455;-75
2023/12/01 17:20:55;;;;;;;;;11.50;10.50;;;;;19.65;35.69;100544.50;4957145;28;45288;-75
2023/12/01 17:23:22;;;;;;;;;13.25;10.50;;;;;19.64;35.69;100544.69;4956877;28;48528;-75
2023/12/01 17:25:47;;;;;;;;;13.00;12.75;;;;;19.67;35.88;100553.06;4957045;28;46178;-74
2023/12/01 17:28:13;;;;;;;;;10.50;9.00;;;;;19.63;35.75;100557.06;4956908;28;45311;-75
2023/12/01 17:30:38;;;;;;;;;9.25;9.25;;;;;19.69;35.80;100556.38;4957043;28;45326;-74
2023/12/01 17:33:03;;;;;;;;;14.00;12.00;;;;;19.70;35.75;100567.75;4956449;28;45524;-75
2023/12/01 17:35:29;;;;;;;;;12.75;12.25;;;;;19.71;35.73;100572.03;4967738;28;60297;-75
2023/12/01 17:37:54;;;;;;;;;12.50;10.50;;;;;19.71;35.75;100569.41;4976389;28;45396;-75
2023/12/01 17:40:21;;;;;;;;;9.00;9.00;;;;;19.71;35.79;100580.78;4976381;28;45336;-75
2023/12/01 17:42:47;;;;;;;;;11.00;9.50;;;;;19.72;35.77;100586.91;4976322;28;45348;-75
2023/12/01 17:45:12;;;;;;;;;9.75;9.00;;;;;19.71;35.86;100578.16;4976219;28;45546;-75
2023/12/01 17:47:37;;;;;;;;;10.75;10.75;;;;;19.66;35.73;100569.91;4975979;28;45304;-77
2023/12/01 17:50:03;;;;;;;;;10.75;10.75;;;;;19.72;35.89;100576.34;4976407;28;45337;-76
2023/12/01 17:52:28;;;;;;;;;10.25;10.25;;;;;19.76;36.02;100579.44;4976136;28;45353;-76
2023/12/01 17:54:53;;;;;;;;;10.00;9.25;;;;;19.64;36.17;100566.63;4976105;28;47155;-74
2023/12/01 17:57:19;;;;;;;;;12.50;12.00;;;;;19.75;36.32;100581.25;4976123;28;45281;-75
2023/12/01 17:59:45;;;;;;;;;10.25;10.00;;;;;19.73;36.15;100583.25;4976328;28;45561;-75
2023/12/01 18:02:10;;;;;;;;;15.25;11.25;;;;;19.68;36.39;100560.00;4975814;28;45240;-75
2023/12/01 18:04:36;;;;;;;;;13.25;10.00;;;;;19.72;36.53;100576.34;4975838;28;46472;-77
2023/12/01 18:07:01;;;;;;;;;10.25;10.25;;;;;19.65;36.44;100567.47;4974926;28;45243;-83
2023/12/01 18:09:26;;;;;;;;;14.75;13.00;;;;;19.76;36.65;100584.72;4976096;28;45597;-84
2023/12/01 18:11:52;;;;;;;;;10.25;10.25;;;;;19.58;36.46;100554.94;4976242;28;45250;-83
2023/12/01 18:14:17;;;;;;;;;11.75;9.00;;;;;19.72;36.46;100565.78;4969476;28;46867;-77
2023/12/01 18:16:42;;;;;;;;;9.00;8.75;;;;;19.82;36.61;100584.06;4960134;28;45361;-79
2023/12/01 18:19:08;;;;;;;;;11.50;11.50;;;;;19.76;36.72;100580.28;4958628;28;45382;-80
2023/12/01 18:21:33;;;;;;;;;10.50;10.25;;;;;19.82;36.91;100608.63;4959738;28;45346;-76
2023/12/01 18:23:58;;;;;;;;;13.75;10.25;;;;;19.76;37.05;100590.00;4959683;28;46303;-77
2023/12/01 18:26:25;;;;;;;;;14.50;11.50;;;;;19.90;36.97;100618.34;4959680;28;45357;-78
2023/12/01 18:28:50;;;;;;;;;10.50;10.50;;;;;19.91;37.13;100614.69;4959892;28;45467;-77
2023/12/01 18:31:16;;;;;;;;;11.00;10.75;;;;;19.82;37.30;100602.53;4959422;28;45482;-74
2023/12/01 18:33:41;;;;;;;;;15.25;11.75;;;;;19.95;37.35;100623.94;4959256;28;45365;-70
2023/12/01 18:36:07;;;;;;;;;12.75;11.25;;;;;19.95;36.38;100617.81;4972274;28;45351;-70
2023/12/01 18:38:32;;;;;;;;;9.25;9.25;;;;;19.93;36.90;100617.97;4968692;28;45519;-72
2023/12/01 18:40:58;;;;;;;;;10.75;9.75;;;;;19.78;37.18;100590.66;4978789;28;45413;-70
2023/12/01 18:43:23;;;;;;;;;12.75;11.00;;;;;19.95;37.59;100623.94;4978447;28;52615;-72
2023/12/01 18:45:48;;;;;;;;;14.00;9.00;;;;;19.90;37.68;100607.78;4970884;28;45351;-70
2023/12/01 18:48:14;;;;;;;;;10.25;9.00;;;;;19.97;37.77;100618.47;4968988;28;45452;-70
2023/12/01 18:50:39;;;;;;;;;13.25;8.50;;;;;19.98;37.86;100622.78;4970220;28;45388;-72
2023/12/01 18:53:04;;;;;;;;;12.75;11.00;;;;;19.93;37.75;100625.91;4966717;28;60170;-72
2023/12/01 18:55:30;;;;;;;;;11.25;10.00;;;;;19.93;37.63;100622.47;4969358;28;45295;-70
2023/12/01 18:57:55;;;;;;;;;11.25;10.50;;;;;20.01;37.96;100634.81;4966833;28;45553;-72
2023/12/01 19:00:21;;;;;;;;;9.25;9.25;;;;;20.02;37.95;100645.19;4967723;28;45384;-71
2023/12/01 19:02:46;;;;;;;;;11.00;9.50;;;;;19.64;37.74;100585.09;4969238;28;45330;-71
2023/12/01 19:05:12;;;;;;;;;11.50;9.75;;;;;19.88;37.75;100622.94;4967098;28;50229;-72
2023/12/01 19:07:37;;;;;;;;;13.75;10.00;;;;;20.04;38.03;100651.13;4968404;28;45392;-69
2023/12/01 19:10:03;;;;;;;;;9.50;8.75;;;;;20.04;37.91;100645.84;4968980;28;45421;-70
2023/12/01 19:12:29;;;;;;;;;12.75;11.00;;;;;20.02;37.95;100650.47;4966740;28;46953;-69
2023/12/01 19:14:54;;;;;;;;;11.00;9.50;;;;;20.01;37.85;100646.16;4968271;28;45526;-72
2023/12/01 19:17:19;;;;;;;;;9.75;8.50;;;;;19.93;37.79;100639.09;4968409;28;45343;-72
2023/12/01 19:19:45;;;;;;;;;9.00;9.00;;;;;20.06;38.11;100664.97;4967243;28;45406;-72
2023/12/01 19:22:10;;;;;;;;;11.00;9.00;;;;;20.02;37.78;100654.91;4968887;28;45393;-69
2023/12/01 19:24:36;;;;;;;;;10.25;9.25;;;;;20.08;38.00;100664.81;4967577;28;45484;-70
2023/12/01 19:27:01;;;;;;;;;9.75;9.50;;;;;19.96;37.94;100645.84;4967677;28;45738;-71
2023/12/01 19:29:27;;;;;;;;;8.25;8.25;;;;;20.08;37.90;100670.09;4971317;28;45464;-71
2023/12/01 19:31:52;;;;;;;;;11.25;9.50;;;;;20.06;38.33;100661.53;4968455;28;46198;-72
2023/12/01 19:34:17;;;;;;;;;8.50;8.00;;;;;19.93;38.34;100654.16;4965977;28;45429;-73
2023/12/01 19:36:43;;;;;;;;;9.75;9.00;;;;;19.93;38.19;100646.22;4976254;28;45495;-72
2023/12/01 19:39:08;;;;;;;;;12.00;11.00;;;;;20.01;38.16;100661.22;4977856;28;45352;-72
2023/12/01 19:41:33;;;;;;;;;8.75;8.25;;;;;20.11;37.86;100674.22;4978103;28;47136;-72
2023/12/01 19:43:59;;;;;;;;;9.75;8.50;;;;;20.03;37.97;100656.59;4977675;28;45464;-72
2023/12/01 19:46:25;;;;;;;;;12.00;11.00;;;;;20.14;37.90;100679.19;4978127;28;45627;-72
2023/12/01 19:48:50;;;;;;;;;10.00;10.00;;;;;20.03;38.07;100672.44;4976907;28;45269;-72
2023/12/01 19:51:16;;;;;;;;;11.75;9.25;;;;;20.13;38.18;100681.00;4977373;28;52912;-70
2023/12/01 19:53:41;;;;;;;;;10.25;9.50;;;;;20.08;38.17;100675.38;4977741;28;45305;-71
2023/12/01 19:56:07;;;;;;;;;10.00;9.00;;;;;20.13;38.27;100683.66;4978122;28;45229;-72
2023/12/01 19:58:32;;;;;;;;;10.00;10.00;;;;;19.94;38.14;100651.31;4977667;28;45274;-71
2023/12/01 20:00:58;;;;;;;;;10.50;8.75;;;;;20.10;38.41;100677.84;4977813;28;46102;-73
2023/12/01 20:03:24;;;;;;;;;9.50;9.25;;;;;20.12;38.25;100689.91;4970651;28;45396;-73
2023/12/01 20:05:49;;;;;;;;;9.75;9.00;;;;;20.14;38.41;100695.03;4962147;28;45390;-73
2023/12/01 20:08:14;;;;;;;;;12.00;11.50;;;;;20.13;38.27;100706.59;4956549;28;49627;-73
2023/12/01 20:10:40;;;;;;;;;11.75;9.00;;;;;20.13;38.15;100702.13;4957792;28;46168;-73
2023/12/01 20:13:05;;;;;;;;;6.50;6.50;;;;;20.13;38.18;100694.22;4957575;28;45473;-70
2023/12/01 20:15:30;;;;;;;;;10.50;9.75;;;;;20.14;38.49;100705.59;4958064;28;45361;-70
2023/12/01 20:17:57;;;;;;;;;11.25;7.75;;;;;20.13;38.61;100704.78;4957991;28;45885;-71
2023/12/01 20:20:23;;;;;;;;;14.25;9.25;;;;;20.13;38.55;100714.50;4957739;28;46066;-71
2023/12/01 20:22:48;;;;;;;;;11.00;8.50;;;;;20.13;38.58;100709.22;4957661;28;45359;-71
2023/12/01 20:25:13;;;;;;;;;11.75;9.25;;;;;19.91;38.24;100690.44;4957762;28;45554;-76
2023/12/01 20:27:39;;;;;;;;;11.33;11.00;;;;;20.10;38.60;100712.16;4957580;28;45651;-79
2023/12/01 20:30:06;;;;;;;;;10.00;8.75;;;;;20.14;38.45;100716.16;4957602;28;46126;-77
2023/12/01 20:32:32;;;;;;;;;10.25;9.50;;;;;19.93;38.26;100684.00;4957425;28;45322;-78
2023/12/01 20:34:58;;;;;;;;;12.75;11.25;;;;;20.06;37.60;100715.16;4960096;28;45835;-75
2023/12/01 20:37:23;;;;;;;;;11.00;9.50;;;;;20.09;37.50;100716.63;4969614;28;45382;-74
2023/12/01 20:39:48;;;;;;;;;11.00;8.50;;;;;20.11;37.67;100719.13;4975838;28;46215;-76
2023/12/01 20:42:14;;;;;;;;;10.50;10.00;;;;;20.12;38.04;100726.06;4975567;28;49752;-75
2023/12/01 20:44:39;;;;;;;;;11.50;9.00;;;;;20.12;37.91;100715.50;4991736;28;45412;-75
2023/12/01 20:47:07;;;;;;;;;9.25;9.25;;;;;19.93;38.13;100693.75;4976332;28;48591;-74
2023/12/01 20:49:32;;;;;;;;;12.00;11.00;;;;;20.03;38.76;100710.22;4979119;28;47126;-75
2023/12/01 20:51:59;;;;;;;;;10.50;9.50;;;;;20.10;39.84;100718.28;4971613;28;45367;-74
2023/12/01 20:54:25;;;;;;;;;11.50;10.25;;;;;20.17;40.25;100729.00;4968940;28;45380;-74
2023/12/01 20:56:50;;;;;;;;;8.25;7.50;;;;;20.20;40.31;100738.41;4976232;28;45485;-75
2023/12/01 20:59:15;;;;;;;;;11.25;11.25;;;;;20.14;40.68;100732.03;4975744;28;45576;-75
2023/12/01 21:01:41;;;;;;;;;11.25;10.75;;;;;20.15;40.93;100731.00;4976275;28;47036;-74
2023/12/01 21:04:06;;;;;;;;;10.50;10.50;;;;;20.17;40.89;100735.13;4975822;28;45311;-75
2023/12/01 21:06:31;;;;;;;;;10.75;10.50;;;;;20.22;40.59;100737.25;4976435;28;45497;-75
2023/12/01 21:08:57;;;;;;;;;8.50;8.50;;;;;20.22;40.78;100739.88;4991087;28;48069;-75
2023/12/01 21:11:22;;;;;;;;;10.00;9.00;;;;;20.26;40.82;100759.72;4974745;28;45377;-75
2023/12/01 21:13:47;;;;;;;;;10.25;9.50;;;;;20.28;41.02;100759.53;4970063;28;45699;-75
2023/12/01 21:16:13;;;;;;;;;10.25;9.00;;;;;20.28;40.71;100760.34;4973634;28;52821;-73
2023/12/01 21:18:38;;;;;;;;;11.50;10.50;;;;;20.25;40.73;100763.34;4971283;28;46288;-74
2023/12/01 21:21:04;;;;;;;;;8.75;7.75;;;;;20.29;40.65;100759.38;4973810;28;45424;-74
2023/12/01 21:23:32;;;;;;;;;14.25;11.50;;;;;20.26;40.80;100756.25;4976263;28;45369;-74
2023/12/01 21:25:57;;;;;;;;;9.75;9.50;;;;;20.30;40.61;100768.09;4973596;28;45517;-71
2023/12/01 21:28:22;;;;;;;;;10.75;8.75;;;;;20.20;41.00;100759.56;4975369;28;46655;-74
2023/12/01 21:30:47;;;;;;;;;9.50;9.50;;;;;20.27;40.52;100779.03;4975620;28;59530;-71
2023/12/01 21:33:13;;;;;;;;;12.75;9.25;;;;;20.31;40.69;100782.97;4966190;28;45277;-73
2023/12/01 21:35:38;;;;;;;;;10.50;9.50;;;;;20.27;40.57;100789.59;4975837;28;45332;-72
2023/12/01 21:38:03;;;;;;;;;11.75;9.75;;;;;20.30;40.60;100791.88;4974731;28;50587;-72
2023/12/01 21:40:29;;;;;;;;;7.50;6.50;;;;;20.26;40.90;100793.22;4975560;28;45348;-71
2023/12/01 21:42:56;;;;;;;;;8.75;8.00;;;;;20.31;40.83;100790.91;4975560;28;45302;-70
2023/12/01 21:45:21;;;;;;;;;11.25;10.50;;;;;20.31;40.59;100798.00;4975784;28;45294;-71
2023/12/01 21:47:47;;;;;;;;;11.00;9.50;;;;;20.30;40.76;100802.44;4975214;28;46018;-71
2023/12/01 21:50:12;;;;;;;;;7.75;7.50;;;;;20.26;40.58;100790.59;4974961;28;45567;-70
2023/12/01 21:52:38;;;;;;;;;10.50;8.75;;;;;20.30;40.43;100807.72;4990443;28;45376;-72
2023/12/01 21:55:04;;;;;;;;;8.75;7.75;;;;;20.16;40.77;100786.31;4975093;28;45483;-70
2023/12/01 21:57:29;;;;;;;;;10.50;8.50;;;;;20.25;40.31;100802.97;4974667;28;45946;-70
2023/12/01 21:59:58;;;;;;;;;11.25;8.75;;;;;20.07;40.47;100788.13;4975516;28;45468;-70
2023/12/01 22:02:23;;;;;;;;;15.75;13.00;;;;;20.30;40.51;100820.94;4975111;28;45489;-72
2023/12/01 22:04:49;;;;;;;;;8.75;8.75;;;;;20.20;40.27;100804.47;4974205;28;45492;-71
2023/12/01 22:07:14;;;;;;;;;7.75;7.50;;;;;20.27;40.51;100824.75;4972354;28;64660;-71
2023/12/01 22:09:39;;;;;;;;;10.00;8.75;;;;;20.28;40.26;100828.22;4972089;28;45377;-72
2023/12/01 22:12:05;;;;;;;;;9.75;8.00;;;;;20.29;40.44;100832.53;4975355;28;45608;-70
2023/12/01 22:14:30;;;;;;;;;12.25;11.00;;;;;20.29;40.45;100845.75;4975746;28;45279;-70
2023/12/01 22:16:56;;;;;;;;;13.75;11.00;;;;;20.16;40.28;100817.19;4975241;28;46014;-71
2023/12/01 22:19:21;;;;;;;;;10.50;9.25;;;;;20.28;40.35;100844.06;4975402;28;45322;-71
2023/12/01 22:21:46;;;;;;;;;8.75;7.00;;;;;20.25;40.08;100847.06;4966937;28;45537;-71
2023/12/01 22:24:12;;;;;;;;;8.00;7.67;;;;;20.26;40.28;100846.06;4974797;28;45218;-70
2023/12/01 22:26:37;;;;;;;;;7.67;7.67;;;;;20.27;40.16;100839.81;4975347;28;45270;-72
2023/12/01 22:29:02;;;;;;;;;11.00;9.00;;;;;20.15;40.24;100815.53;4966755;28;45319;-71
2023/12/01 22:31:30;;;;;;;;;10.00;9.75;;;;;20.28;39.95;100846.72;4971187;28;45497;-73
2023/12/01 22:33:55;;;;;;;;;10.50;8.75;;;;;20.28;40.20;100846.72;4973889;28;45437;-72
2023/12/01 22:36:20;;;;;;;;;8.50;6.25;;;;;20.20;39.97;100833.53;4973809;28;51136;-72
2023/12/01 22:38:46;;;;;;;;;12.00;10.75;;;;;20.15;40.07;100820.81;4964401;28;45353;-74
2023/12/01 22:41:11;;;;;;;;;13.00;8.50;;;;;20.29;40.22;100848.38;4974868;28;46098;-74
2023/12/01 22:43:38;;;;;;;;;9.00;7.00;;;;;20.25;40.69;100842.59;4974951;28;45596;-73
2023/12/01 22:46:05;;;;;;;;;13.00;7.50;;;;;20.26;40.48;100841.63;4967881;28;46122;-72
2023/12/01 22:48:31;;;;;;;;;9.00;8.25;;;;;20.24;40.41;100840.13;4975099;28;45449;-73
2023/12/01 22:50:56;;;;;;;;;11.00;10.25;;;;;20.20;39.84;100830.88;4973642;28;45607;-74
2023/12/01 22:53:21;;;;;;;;;10.00;8.25;;;;;20.28;39.99;100854.66;4971210;28;50725;-74
2023/12/01 22:55:47;;;;;;;;;8.67;8.67;;;;;20.28;40.21;100868.69;4970162;28;67481;-74
2023/12/01 22:58:12;;;;;;;;;11.50;9.50;;;;;20.21;40.46;100843.94;4974630;28;45491;-73
2023/12/01 23:00:38;;;;;;;;;11.75;10.50;;;;;20.01;40.13;100812.53;4974887;28;50081;-72
2023/12/01 23:03:03;;;;;;;;;11.00;9.25;;;;;20.29;39.62;100859.78;4968090;28;45516;-72
2023/12/01 23:05:29;;;;;;;;;10.00;8.33;;;;;20.22;40.24;100847.41;4966914;28;46388;-79
2023/12/01 23:07:55;;;;;;;;;13.67;8.33;;;;;20.14;39.84;100838.47;4971426;28;45891;-75
2023/12/01 23:10:20;;;;;;;;;9.50;8.00;;;;;20.28;39.72;100865.22;4974173;28;45477;-75
2023/12/01 23:12:45;;;;;;;;;8.75;7.00;;;;;20.25;39.82;100863.72;4977851;28;45410;-75
2023/12/01 23:15:11;;;;;;;;;13.50;8.75;;;;;20.22;39.68;100865.91;4978368;28;47074;-77
2023/12/01 23:17:36;;;;;;;;;10.50;9.00;;;;;20.26;39.93;100873.31;4978640;28;45416;-78
2023/12/01 23:20:05;;;;;;;;;10.33;9.00;;;;;20.26;39.64;100881.25;4978834;28;45341;-79
2023/12/01 23:22:32;;;;;;;;;11.33;7.00;;;;;20.01;39.07;100849.53;4978271;28;45435;-79
2023/12/01 23:24:58;;;;;;;;;12.25;9.75;;;;;20.25;39.78;100889.31;4978179;28;47255;-79
2023/12/01 23:27:23;;;;;;;;;10.00;9.00;;;;;20.07;39.47;100867.34;4978261;28;45491;-79
2023/12/01 23:29:48;;;;;;;;;9.00;8.50;;;;;20.17;39.26;100879.59;4978378;28;45804;-80
2023/12/01 23:32:14;;;;;;;;;8.75;8.75;;;;;20.18;39.13;100892.66;4978206;28;45573;-79
2023/12/01 23:34:39;;;;;;;;;10.75;10.00;;;;;20.11;38.96;100882.88;4977704;28;45501;-80
2023/12/01 23:37:04;;;;;;;;;9.25;8.25;;;;;19.94;39.16;100856.47;4978056;28;45438;-80
2023/12/01 23:39:30;;;;;;;;;8.75;8.25;;;;;20.14;39.04;100891.31;4978537;28;45305;-79
2023/12/01 23:41:55;;;;;;;;;11.00;9.25;;;;;20.14;39.01;100895.78;4976860;28;45391;-79
2023/12/01 23:44:20;;;;;;;;;12.25;9.75;;;;;20.13;39.03;100897.59;4978223;28;46367;-79
2023/12/01 23:46:45;;;;;;;;;10.00;10.00;;;;;19.53;38.49;100799.22;4961403;28;45370;-79
2023/12/01 23:49:11;;;;;;;;;13.00;9.67;;;;;20.10;38.71;100883.88;4980470;28;45360;-79
2023/12/01 23:51:37;;;;;;;;;8.67;8.67;;;;;20.02;38.72;100882.88;4978463;28;45385;-79
2023/12/01 23:54:02;;;;;;;;;10.50;10.50;;;;;20.00;38.59;100876.94;4977958;28;46281;-79
2023/12/01 23:56:28;;;;;;;;;9.75;9.75;;;;;19.96;38.53;100871.16;4969063;28;45446;-79
2023/12/01 23:58:53;;;;;;;;;10.50;10.25;;;;;20.05;38.53;100885.19;4958609;28;50785;-78
